sensor_id;sensor_type;location;lat;lon;timestamp;P1;durP1;ratioP1;P2;durP2;ratioP2
43945;SDS011;29599;51.196;4.428;2022-10-16T00:01:24;1.95;;;1.42;;
43945;SDS011;29599;51.196;4.428;2022-10-16T00:03:52;2.95;;;1.17;;
43945;SDS011;29599;51.196;4.428;2022-10-16T00:06:18;4.15;;;1.48;;
43945;SDS011;29599;51.196;4.428;2022-10-16T00:08:45;3.17;;;1.30;;
43945;SDS011;29599;51.196;4.428;2022-10-16T00:13:38;2.85;;;1.20;;
43945;SDS011;29599;51.196;4.428;2022-10-16T00:16:06;3.42;;;1.35;;
43945;SDS011;29599;51.196;4.428;2022-10-16T00:18:32;2.13;;;1.33;;
43945;SDS011;29599;51.196;4.428;2022-10-16T00:21:04;2.75;;;1.30;;
43945;SDS011;29599;51.196;4.428;2022-10-16T00:23:31;1.63;;;1.20;;
43945;SDS011;29599;51.196;4.428;2022-10-16T00:25:58;4.03;;;1.35;;
43945;SDS011;29599;51.196;4.428;2022-10-16T00:28:25;1.33;;;1.05;;
43945;SDS011;29599;51.196;4.428;2022-10-16T00:30:51;4.07;;;1.20;;
43945;SDS011;29599;51.196;4.428;2022-10-16T00:33:17;1.60;;;1.08;;
43945;SDS011;29599;51.196;4.428;2022-10-16T00:35:43;1.63;;;1.10;;
43945;SDS011;29599;51.196;4.428;2022-10-16T00:38:09;2.35;;;1.60;;
43945;SDS011;29599;51.196;4.428;2022-10-16T00:40:34;4.68;;;1.63;;
43945;SDS011;29599;51.196;4.428;2022-10-16T00:43:00;4.40;;;1.25;;
43945;SDS011;29599;51.196;4.428;2022-10-16T00:45:25;2.05;;;1.00;;
43945;SDS011;29599;51.196;4.428;2022-10-16T00:47:51;3.88;;;1.30;;
43945;SDS011;29599;51.196;4.428;2022-10-16T00:50:22;6.78;;;1.58;;
43945;SDS011;29599;51.196;4.428;2022-10-16T00:52:53;2.63;;;1.27;;
43945;SDS011;29599;51.196;4.428;2022-10-16T00:55:20;1.95;;;1.30;;
43945;SDS011;29599;51.196;4.428;2022-10-16T00:57:46;5.18;;;1.40;;
43945;SDS011;29599;51.196;4.428;2022-10-16T01:00:14;1.52;;;1.10;;
43945;SDS011;29599;51.196;4.428;2022-10-16T01:02:50;3.55;;;1.13;;
43945;SDS011;29599;51.196;4.428;2022-10-16T01:05:25;4.20;;;1.63;;
43945;SDS011;29599;51.196;4.428;2022-10-16T01:08:10;6.43;;;1.30;;
43945;SDS011;29599;51.196;4.428;2022-10-16T01:10:41;3.50;;;1.27;;
43945;SDS011;29599;51.196;4.428;2022-10-16T01:13:20;1.75;;;1.20;;
43945;SDS011;29599;51.196;4.428;2022-10-16T01:16:05;3.08;;;1.40;;
43945;SDS011;29599;51.196;4.428;2022-10-16T01:21:50;1.48;;;1.23;;
43945;SDS011;29599;51.196;4.428;2022-10-16T01:29:26;3.20;;;1.30;;
43945;SDS011;29599;51.196;4.428;2022-10-16T01:32:00;3.53;;;1.60;;
43945;SDS011;29599;51.196;4.428;2022-10-16T01:34:32;2.47;;;1.23;;
43945;SDS011;29599;51.196;4.428;2022-10-16T01:37:03;1.58;;;1.20;;
43945;SDS011;29599;51.196;4.428;2022-10-16T01:39:33;2.30;;;1.05;;
43945;SDS011;29599;51.196;4.428;2022-10-16T01:42:16;1.25;;;1.05;;
43945;SDS011;29599;51.196;4.428;2022-10-16T01:44:48;2.58;;;1.08;;
43945;SDS011;29599;51.196;4.428;2022-10-16T01:47:17;2.97;;;1.20;;
43945;SDS011;29599;51.196;4.428;2022-10-16T01:49:47;4.82;;;1.45;;
43945;SDS011;29599;51.196;4.428;2022-10-16T01:52:15;3.63;;;1.30;;
43945;SDS011;29599;51.196;4.428;2022-10-16T01:54:45;2.03;;;1.20;;
43945;SDS011;29599;51.196;4.428;2022-10-16T01:57:13;4.10;;;1.10;;
43945;SDS011;29599;51.196;4.428;2022-10-16T01:59:46;2.40;;;1.08;;
43945;SDS011;29599;51.196;4.428;2022-10-16T02:02:15;3.17;;;1.20;;
43945;SDS011;29599;51.196;4.428;2022-10-16T02:04:48;4.18;;;1.63;;
43945;SDS011;29599;51.196;4.428;2022-10-16T02:07:18;2.03;;;1.02;;
43945;SDS011;29599;51.196;4.428;2022-10-16T02:09:43;4.28;;;1.60;;
43945;SDS011;29599;51.196;4.428;2022-10-16T02:12:11;5.55;;;1.55;;
43945;SDS011;29599;51.196;4.428;2022-10-16T02:14:46;2.78;;;1.10;;
43945;SDS011;29599;51.196;4.428;2022-10-16T02:17:12;6.20;;;1.35;;
43945;SDS011;29599;51.196;4.428;2022-10-16T02:19:39;1.48;;;1.08;;
43945;SDS011;29599;51.196;4.428;2022-10-16T02:22:06;2.90;;;1.05;;
43945;SDS011;29599;51.196;4.428;2022-10-16T02:24:39;2.97;;;1.40;;
43945;SDS011;29599;51.196;4.428;2022-10-16T02:30:19;3.15;;;1.40;;
43945;SDS011;29599;51.196;4.428;2022-10-16T02:33:07;2.83;;;1.27;;
43945;SDS011;29599;51.196;4.428;2022-10-16T02:35:34;3.80;;;1.20;;
43945;SDS011;29599;51.196;4.428;2022-10-16T02:38:01;4.88;;;1.27;;
43945;SDS011;29599;51.196;4.428;2022-10-16T02:40:28;3.30;;;1.67;;
43945;SDS011;29599;51.196;4.428;2022-10-16T02:42:54;1.83;;;1.27;;
43945;SDS011;29599;51.196;4.428;2022-10-16T02:45:22;2.33;;;1.40;;
43945;SDS011;29599;51.196;4.428;2022-10-16T02:47:48;4.43;;;1.60;;
43945;SDS011;29599;51.196;4.428;2022-10-16T02:50:14;4.80;;;1.65;;
43945;SDS011;29599;51.196;4.428;2022-10-16T02:52:40;1.67;;;1.58;;
43945;SDS011;29599;51.196;4.428;2022-10-16T02:55:06;3.63;;;1.60;;
43945;SDS011;29599;51.196;4.428;2022-10-16T02:57:32;4.55;;;1.67;;
43945;SDS011;29599;51.196;4.428;2022-10-16T02:59:57;3.85;;;1.80;;
43945;SDS011;29599;51.196;4.428;2022-10-16T03:02:23;2.08;;;1.50;;
43945;SDS011;29599;51.196;4.428;2022-10-16T03:04:49;3.42;;;1.60;;
43945;SDS011;29599;51.196;4.428;2022-10-16T03:07:14;5.82;;;1.50;;
43945;SDS011;29599;51.196;4.428;2022-10-16T03:09:40;2.47;;;1.88;;
43945;SDS011;29599;51.196;4.428;2022-10-16T03:12:06;3.08;;;1.50;;
43945;SDS011;29599;51.196;4.428;2022-10-16T03:14:31;5.80;;;1.83;;
43945;SDS011;29599;51.196;4.428;2022-10-16T03:16:57;2.63;;;1.83;;
43945;SDS011;29599;51.196;4.428;2022-10-16T03:19:23;2.72;;;1.92;;
43945;SDS011;29599;51.196;4.428;2022-10-16T03:21:48;3.20;;;1.92;;
43945;SDS011;29599;51.196;4.428;2022-10-16T03:24:14;7.13;;;2.22;;
43945;SDS011;29599;51.196;4.428;2022-10-16T03:26:40;2.60;;;1.65;;
43945;SDS011;29599;51.196;4.428;2022-10-16T03:29:05;7.15;;;1.95;;
43945;SDS011;29599;51.196;4.428;2022-10-16T03:31:31;3.38;;;2.10;;
43945;SDS011;29599;51.196;4.428;2022-10-16T03:33:57;10.18;;;2.47;;
43945;SDS011;29599;51.196;4.428;2022-10-16T03:36:23;4.45;;;1.70;;
43945;SDS011;29599;51.196;4.428;2022-10-16T03:38:48;4.25;;;1.90;;
43945;SDS011;29599;51.196;4.428;2022-10-16T03:41:14;4.53;;;1.80;;
43945;SDS011;29599;51.196;4.428;2022-10-16T03:43:40;6.78;;;1.77;;
43945;SDS011;29599;51.196;4.428;2022-10-16T03:46:05;5.55;;;1.90;;
43945;SDS011;29599;51.196;4.428;2022-10-16T03:48:31;2.30;;;1.35;;
43945;SDS011;29599;51.196;4.428;2022-10-16T03:50:57;4.82;;;1.88;;
43945;SDS011;29599;51.196;4.428;2022-10-16T03:53:23;3.00;;;1.70;;
43945;SDS011;29599;51.196;4.428;2022-10-16T03:55:48;4.60;;;1.83;;
43945;SDS011;29599;51.196;4.428;2022-10-16T03:58:14;4.60;;;1.67;;
43945;SDS011;29599;51.196;4.428;2022-10-16T04:00:43;5.38;;;1.90;;
43945;SDS011;29599;51.196;4.428;2022-10-16T04:05:36;2.75;;;1.98;;
43945;SDS011;29599;51.196;4.428;2022-10-16T04:08:02;7.82;;;2.10;;
43945;SDS011;29599;51.196;4.428;2022-10-16T04:10:28;4.28;;;1.88;;
43945;SDS011;29599;51.196;4.428;2022-10-16T04:12:53;4.22;;;1.73;;
43945;SDS011;29599;51.196;4.428;2022-10-16T04:15:22;5.13;;;1.65;;
43945;SDS011;29599;51.196;4.428;2022-10-16T04:17:48;3.92;;;1.75;;
43945;SDS011;29599;51.196;4.428;2022-10-16T04:20:13;4.93;;;1.85;;
43945;SDS011;29599;51.196;4.428;2022-10-16T04:22:39;3.05;;;1.60;;
43945;SDS011;29599;51.196;4.428;2022-10-16T04:25:05;2.90;;;1.70;;
43945;SDS011;29599;51.196;4.428;2022-10-16T04:27:31;2.45;;;2.00;;
43945;SDS011;29599;51.196;4.428;2022-10-16T04:29:57;3.33;;;1.38;;
43945;SDS011;29599;51.196;4.428;2022-10-16T04:32:23;3.72;;;1.70;;
43945;SDS011;29599;51.196;4.428;2022-10-16T04:34:48;10.00;;;1.70;;
43945;SDS011;29599;51.196;4.428;2022-10-16T04:37:14;6.57;;;1.73;;
43945;SDS011;29599;51.196;4.428;2022-10-16T04:39:40;4.13;;;2.00;;
43945;SDS011;29599;51.196;4.428;2022-10-16T04:42:05;7.85;;;1.88;;
43945;SDS011;29599;51.196;4.428;2022-10-16T04:44:31;3.88;;;1.52;;
43945;SDS011;29599;51.196;4.428;2022-10-16T04:46:57;5.22;;;1.80;;
43945;SDS011;29599;51.196;4.428;2022-10-16T04:49:22;3.47;;;1.52;;
43945;SDS011;29599;51.196;4.428;2022-10-16T04:51:48;6.18;;;1.60;;
43945;SDS011;29599;51.196;4.428;2022-10-16T04:54:13;4.57;;;1.75;;
43945;SDS011;29599;51.196;4.428;2022-10-16T04:56:39;4.15;;;1.80;;
43945;SDS011;29599;51.196;4.428;2022-10-16T04:59:12;5.45;;;1.80;;
43945;SDS011;29599;51.196;4.428;2022-10-16T05:01:40;1.90;;;1.42;;
43945;SDS011;29599;51.196;4.428;2022-10-16T05:04:06;4.53;;;1.55;;
43945;SDS011;29599;51.196;4.428;2022-10-16T05:06:32;2.78;;;1.48;;
43945;SDS011;29599;51.196;4.428;2022-10-16T05:08:57;6.30;;;2.05;;
43945;SDS011;29599;51.196;4.428;2022-10-16T05:11:23;5.00;;;2.20;;
43945;SDS011;29599;51.196;4.428;2022-10-16T05:13:48;3.88;;;1.70;;
43945;SDS011;29599;51.196;4.428;2022-10-16T05:16:14;3.20;;;1.80;;
43945;SDS011;29599;51.196;4.428;2022-10-16T05:18:40;6.45;;;1.90;;
43945;SDS011;29599;51.196;4.428;2022-10-16T05:21:05;4.32;;;1.77;;
43945;SDS011;29599;51.196;4.428;2022-10-16T05:23:31;7.65;;;1.65;;
43945;SDS011;29599;51.196;4.428;2022-10-16T05:25:57;6.75;;;1.83;;
43945;SDS011;29599;51.196;4.428;2022-10-16T05:28:24;4.75;;;2.35;;
43945;SDS011;29599;51.196;4.428;2022-10-16T05:30:50;6.18;;;2.22;;
43945;SDS011;29599;51.196;4.428;2022-10-16T05:33:16;4.60;;;1.70;;
43945;SDS011;29599;51.196;4.428;2022-10-16T05:35:42;6.57;;;2.38;;
43945;SDS011;29599;51.196;4.428;2022-10-16T05:38:08;6.95;;;2.20;;
43945;SDS011;29599;51.196;4.428;2022-10-16T05:40:34;2.13;;;1.67;;
43945;SDS011;29599;51.196;4.428;2022-10-16T05:43:00;5.75;;;2.20;;
43945;SDS011;29599;51.196;4.428;2022-10-16T05:45:25;6.63;;;2.05;;
43945;SDS011;29599;51.196;4.428;2022-10-16T05:47:51;7.68;;;2.20;;
43945;SDS011;29599;51.196;4.428;2022-10-16T05:50:17;5.95;;;1.90;;
43945;SDS011;29599;51.196;4.428;2022-10-16T05:52:42;10.73;;;2.33;;
43945;SDS011;29599;51.196;4.428;2022-10-16T05:55:08;8.32;;;2.53;;
43945;SDS011;29599;51.196;4.428;2022-10-16T05:57:33;5.05;;;2.10;;
43945;SDS011;29599;51.196;4.428;2022-10-16T05:59:59;4.03;;;2.00;;
43945;SDS011;29599;51.196;4.428;2022-10-16T06:02:25;2.75;;;1.63;;
43945;SDS011;29599;51.196;4.428;2022-10-16T06:04:53;3.33;;;1.80;;
43945;SDS011;29599;51.196;4.428;2022-10-16T06:07:19;8.02;;;2.35;;
43945;SDS011;29599;51.196;4.428;2022-10-16T06:09:47;3.22;;;1.98;;
43945;SDS011;29599;51.196;4.428;2022-10-16T06:12:14;6.75;;;2.40;;
43945;SDS011;29599;51.196;4.428;2022-10-16T06:14:40;6.38;;;2.08;;
43945;SDS011;29599;51.196;4.428;2022-10-16T06:17:06;2.58;;;1.65;;
43945;SDS011;29599;51.196;4.428;2022-10-16T06:19:31;5.07;;;1.95;;
43945;SDS011;29599;51.196;4.428;2022-10-16T06:21:57;6.60;;;2.03;;
43945;SDS011;29599;51.196;4.428;2022-10-16T06:24:23;5.00;;;2.22;;
43945;SDS011;29599;51.196;4.428;2022-10-16T06:26:49;4.35;;;1.98;;
43945;SDS011;29599;51.196;4.428;2022-10-16T06:29:15;3.13;;;1.90;;
43945;SDS011;29599;51.196;4.428;2022-10-16T06:31:40;7.53;;;2.05;;
43945;SDS011;29599;51.196;4.428;2022-10-16T06:34:08;4.90;;;2.00;;
43945;SDS011;29599;51.196;4.428;2022-10-16T06:36:35;3.37;;;2.00;;
43945;SDS011;29599;51.196;4.428;2022-10-16T06:39:01;4.00;;;1.70;;
43945;SDS011;29599;51.196;4.428;2022-10-16T06:41:27;5.88;;;1.98;;
43945;SDS011;29599;51.196;4.428;2022-10-16T06:43:53;3.33;;;1.77;;
43945;SDS011;29599;51.196;4.428;2022-10-16T06:46:20;3.90;;;2.38;;
43945;SDS011;29599;51.196;4.428;2022-10-16T06:48:47;6.85;;;1.73;;
43945;SDS011;29599;51.196;4.428;2022-10-16T06:51:14;4.90;;;1.85;;
43945;SDS011;29599;51.196;4.428;2022-10-16T06:53:48;4.72;;;1.70;;
43945;SDS011;29599;51.196;4.428;2022-10-16T06:56:16;5.65;;;1.80;;
43945;SDS011;29599;51.196;4.428;2022-10-16T06:58:50;4.65;;;1.85;;
43945;SDS011;29599;51.196;4.428;2022-10-16T07:01:17;7.00;;;2.30;;
43945;SDS011;29599;51.196;4.428;2022-10-16T07:03:44;5.32;;;1.90;;
43945;SDS011;29599;51.196;4.428;2022-10-16T07:06:11;10.48;;;1.90;;
43945;SDS011;29599;51.196;4.428;2022-10-16T07:08:39;10.27;;;2.22;;
43945;SDS011;29599;51.196;4.428;2022-10-16T07:11:07;3.88;;;1.90;;
43945;SDS011;29599;51.196;4.428;2022-10-16T07:13:35;10.40;;;1.95;;
43945;SDS011;29599;51.196;4.428;2022-10-16T07:18:35;7.32;;;2.08;;
43945;SDS011;29599;51.196;4.428;2022-10-16T07:21:07;6.68;;;2.28;;
43945;SDS011;29599;51.196;4.428;2022-10-16T07:23:35;4.40;;;2.05;;
43945;SDS011;29599;51.196;4.428;2022-10-16T07:26:01;2.83;;;1.75;;
43945;SDS011;29599;51.196;4.428;2022-10-16T07:28:26;4.55;;;1.75;;
43945;SDS011;29599;51.196;4.428;2022-10-16T07:30:52;7.55;;;1.80;;
43945;SDS011;29599;51.196;4.428;2022-10-16T07:33:18;3.70;;;1.85;;
43945;SDS011;29599;51.196;4.428;2022-10-16T07:35:47;6.70;;;1.85;;
43945;SDS011;29599;51.196;4.428;2022-10-16T07:38:15;10.30;;;1.90;;
43945;SDS011;29599;51.196;4.428;2022-10-16T07:40:41;6.15;;;1.92;;
43945;SDS011;29599;51.196;4.428;2022-10-16T07:43:06;3.90;;;1.52;;
43945;SDS011;29599;51.196;4.428;2022-10-16T07:45:32;7.35;;;2.10;;
43945;SDS011;29599;51.196;4.428;2022-10-16T07:47:58;3.92;;;2.00;;
43945;SDS011;29599;51.196;4.428;2022-10-16T07:50:23;4.85;;;1.90;;
43945;SDS011;29599;51.196;4.428;2022-10-16T07:52:49;6.03;;;2.00;;
43945;SDS011;29599;51.196;4.428;2022-10-16T07:55:14;7.07;;;2.00;;
43945;SDS011;29599;51.196;4.428;2022-10-16T07:57:40;6.95;;;1.80;;
43945;SDS011;29599;51.196;4.428;2022-10-16T08:00:06;4.45;;;1.73;;
43945;SDS011;29599;51.196;4.428;2022-10-16T08:02:32;8.05;;;1.98;;
43945;SDS011;29599;51.196;4.428;2022-10-16T08:04:57;4.93;;;2.10;;
43945;SDS011;29599;51.196;4.428;2022-10-16T08:07:23;7.10;;;2.03;;
43945;SDS011;29599;51.196;4.428;2022-10-16T08:09:49;7.05;;;2.08;;
43945;SDS011;29599;51.196;4.428;2022-10-16T08:12:16;4.50;;;2.25;;
43945;SDS011;29599;51.196;4.428;2022-10-16T08:14:42;6.47;;;2.05;;
43945;SDS011;29599;51.196;4.428;2022-10-16T08:17:08;4.18;;;1.48;;
43945;SDS011;29599;51.196;4.428;2022-10-16T08:19:33;6.90;;;1.67;;
43945;SDS011;29599;51.196;4.428;2022-10-16T08:21:59;3.83;;;1.60;;
43945;SDS011;29599;51.196;4.428;2022-10-16T08:24:25;5.63;;;1.88;;
43945;SDS011;29599;51.196;4.428;2022-10-16T08:26:53;3.97;;;1.42;;
43945;SDS011;29599;51.196;4.428;2022-10-16T08:29:19;11.70;;;2.10;;
43945;SDS011;29599;51.196;4.428;2022-10-16T08:31:44;7.68;;;2.00;;
43945;SDS011;29599;51.196;4.428;2022-10-16T08:34:10;6.07;;;1.90;;
43945;SDS011;29599;51.196;4.428;2022-10-16T08:36:36;5.85;;;1.50;;
43945;SDS011;29599;51.196;4.428;2022-10-16T08:39:01;3.38;;;1.55;;
43945;SDS011;29599;51.196;4.428;2022-10-16T08:44:40;6.30;;;1.77;;
43945;SDS011;29599;51.196;4.428;2022-10-16T08:47:21;9.07;;;2.03;;
43945;SDS011;29599;51.196;4.428;2022-10-16T08:49:57;4.60;;;1.58;;
43945;SDS011;29599;51.196;4.428;2022-10-16T08:52:34;2.95;;;1.27;;
43945;SDS011;29599;51.196;4.428;2022-10-16T08:55:03;5.32;;;1.17;;
43945;SDS011;29599;51.196;4.428;2022-10-16T08:57:29;8.15;;;1.95;;
43945;SDS011;29599;51.196;4.428;2022-10-16T08:59:58;4.95;;;1.40;;
43945;SDS011;29599;51.196;4.428;2022-10-16T09:02:40;7.65;;;1.58;;
43945;SDS011;29599;51.196;4.428;2022-10-16T09:05:21;3.25;;;1.38;;
43945;SDS011;29599;51.196;4.428;2022-10-16T09:08:03;6.57;;;1.88;;
43945;SDS011;29599;51.196;4.428;2022-10-16T09:13:39;7.45;;;1.60;;
43945;SDS011;29599;51.196;4.428;2022-10-16T09:16:25;4.78;;;1.70;;
43945;SDS011;29599;51.196;4.428;2022-10-16T09:19:00;7.10;;;2.22;;
43945;SDS011;29599;51.196;4.428;2022-10-16T09:21:35;5.90;;;1.50;;
43945;SDS011;29599;51.196;4.428;2022-10-16T09:24:14;3.83;;;1.45;;
43945;SDS011;29599;51.196;4.428;2022-10-16T09:26:44;7.40;;;1.50;;
43945;SDS011;29599;51.196;4.428;2022-10-16T09:29:11;8.75;;;1.70;;
43945;SDS011;29599;51.196;4.428;2022-10-16T09:31:38;8.73;;;1.90;;
43945;SDS011;29599;51.196;4.428;2022-10-16T09:34:05;10.02;;;1.60;;
43945;SDS011;29599;51.196;4.428;2022-10-16T09:36:43;6.85;;;2.03;;
43945;SDS011;29599;51.196;4.428;2022-10-16T09:39:11;10.20;;;1.75;;
43945;SDS011;29599;51.196;4.428;2022-10-16T09:41:37;7.80;;;1.50;;
43945;SDS011;29599;51.196;4.428;2022-10-16T09:44:16;11.20;;;1.70;;
43945;SDS011;29599;51.196;4.428;2022-10-16T09:47:05;5.57;;;1.60;;
43945;SDS011;29599;51.196;4.428;2022-10-16T09:49:56;6.13;;;1.50;;
43945;SDS011;29599;51.196;4.428;2022-10-16T09:52:31;12.05;;;2.05;;
43945;SDS011;29599;51.196;4.428;2022-10-16T09:54:58;4.18;;;1.60;;
43945;SDS011;29599;51.196;4.428;2022-10-16T09:57:25;6.85;;;1.67;;
43945;SDS011;29599;51.196;4.428;2022-10-16T09:59:52;6.75;;;1.80;;
43945;SDS011;29599;51.196;4.428;2022-10-16T10:02:22;4.43;;;1.40;;
43945;SDS011;29599;51.196;4.428;2022-10-16T10:04:55;8.60;;;1.75;;
43945;SDS011;29599;51.196;4.428;2022-10-16T10:07:25;10.82;;;2.17;;
43945;SDS011;29599;51.196;4.428;2022-10-16T10:09:53;8.75;;;1.95;;
43945;SDS011;29599;51.196;4.428;2022-10-16T10:12:25;7.33;;;1.73;;
43945;SDS011;29599;51.196;4.428;2022-10-16T10:14:53;7.07;;;1.80;;
43945;SDS011;29599;51.196;4.428;2022-10-16T10:19:54;8.02;;;1.80;;
43945;SDS011;29599;51.196;4.428;2022-10-16T10:22:44;5.78;;;1.63;;
43945;SDS011;29599;51.196;4.428;2022-10-16T10:35:45;8.80;;;1.92;;
43945;SDS011;29599;51.196;4.428;2022-10-16T10:49:30;8.68;;;2.03;;
43945;SDS011;29599;51.196;4.428;2022-10-16T10:57:50;10.05;;;1.65;;
43945;SDS011;29599;51.196;4.428;2022-10-16T11:01:12;7.53;;;1.60;;
43945;SDS011;29599;51.196;4.428;2022-10-16T11:09:00;6.93;;;1.40;;
43945;SDS011;29599;51.196;4.428;2022-10-16T11:11:35;8.10;;;1.60;;
43945;SDS011;29599;51.196;4.428;2022-10-16T11:14:10;9.48;;;2.08;;
43945;SDS011;29599;51.196;4.428;2022-10-16T11:16:44;11.85;;;1.83;;
43945;SDS011;29599;51.196;4.428;2022-10-16T11:19:29;10.70;;;1.95;;
43945;SDS011;29599;51.196;4.428;2022-10-16T11:22:24;10.18;;;2.25;;
43945;SDS011;29599;51.196;4.428;2022-10-16T11:24:53;9.77;;;1.70;;
43945;SDS011;29599;51.196;4.428;2022-10-16T11:30:22;6.70;;;1.75;;
43945;SDS011;29599;51.196;4.428;2022-10-16T11:33:02;10.45;;;2.33;;
43945;SDS011;29599;51.196;4.428;2022-10-16T11:35:42;8.60;;;1.95;;
43945;SDS011;29599;51.196;4.428;2022-10-16T11:41:29;9.82;;;1.75;;
43945;SDS011;29599;51.196;4.428;2022-10-16T11:49:56;9.35;;;2.22;;
43945;SDS011;29599;51.196;4.428;2022-10-16T11:52:28;7.35;;;2.10;;
43945;SDS011;29599;51.196;4.428;2022-10-16T11:54:59;12.13;;;2.70;;
43945;SDS011;29599;51.196;4.428;2022-10-16T11:57:41;8.30;;;1.98;;
43945;SDS011;29599;51.196;4.428;2022-10-16T12:00:37;9.18;;;2.05;;
43945;SDS011;29599;51.196;4.428;2022-10-16T12:03:18;12.18;;;2.00;;
43945;SDS011;29599;51.196;4.428;2022-10-16T12:09:00;9.55;;;2.10;;
43945;SDS011;29599;51.196;4.428;2022-10-16T12:16:55;7.40;;;1.63;;
43945;SDS011;29599;51.196;4.428;2022-10-16T12:19:30;9.10;;;2.30;;
43945;SDS011;29599;51.196;4.428;2022-10-16T12:21:58;8.07;;;2.10;;
43945;SDS011;29599;51.196;4.428;2022-10-16T12:26:57;8.63;;;2.20;;
43945;SDS011;29599;51.196;4.428;2022-10-16T12:29:28;7.60;;;2.30;;
43945;SDS011;29599;51.196;4.428;2022-10-16T12:32:04;13.35;;;2.30;;
43945;SDS011;29599;51.196;4.428;2022-10-16T12:34:52;12.38;;;2.22;;
43945;SDS011;29599;51.196;4.428;2022-10-16T12:37:20;7.18;;;2.20;;
43945;SDS011;29599;51.196;4.428;2022-10-16T12:39:58;7.70;;;1.60;;
43945;SDS011;29599;51.196;4.428;2022-10-16T12:42:35;7.15;;;2.00;;
43945;SDS011;29599;51.196;4.428;2022-10-16T12:45:01;6.45;;;1.77;;
43945;SDS011;29599;51.196;4.428;2022-10-16T12:48:02;7.70;;;2.17;;
43945;SDS011;29599;51.196;4.428;2022-10-16T12:50:43;9.48;;;1.80;;
43945;SDS011;29599;51.196;4.428;2022-10-16T12:53:25;10.10;;;1.52;;
43945;SDS011;29599;51.196;4.428;2022-10-16T12:56:03;7.05;;;1.70;;
43945;SDS011;29599;51.196;4.428;2022-10-16T13:04:29;6.28;;;1.48;;
43945;SDS011;29599;51.196;4.428;2022-10-16T13:07:15;7.22;;;1.75;;
43945;SDS011;29599;51.196;4.428;2022-10-16T13:16:11;6.90;;;1.20;;
43945;SDS011;29599;51.196;4.428;2022-10-16T13:19:00;9.52;;;1.15;;
43945;SDS011;29599;51.196;4.428;2022-10-16T13:32:46;5.55;;;1.25;;
43945;SDS011;29599;51.196;4.428;2022-10-16T13:35:21;7.78;;;1.35;;
43945;SDS011;29599;51.196;4.428;2022-10-16T13:37:49;4.25;;;1.10;;
43945;SDS011;29599;51.196;4.428;2022-10-16T13:40:22;2.95;;;1.08;;
43945;SDS011;29599;51.196;4.428;2022-10-16T13:42:50;5.15;;;1.33;;
43945;SDS011;29599;51.196;4.428;2022-10-16T13:45:22;2.38;;;0.93;;
43945;SDS011;29599;51.196;4.428;2022-10-16T13:47:50;6.50;;;1.60;;
43945;SDS011;29599;51.196;4.428;2022-10-16T13:50:30;3.97;;;1.23;;
43945;SDS011;29599;51.196;4.428;2022-10-16T13:53:14;5.85;;;1.13;;
43945;SDS011;29599;51.196;4.428;2022-10-16T13:55:40;4.53;;;1.10;;
43945;SDS011;29599;51.196;4.428;2022-10-16T13:58:11;4.82;;;1.23;;
43945;SDS011;29599;51.196;4.428;2022-10-16T14:00:39;4.25;;;1.30;;
43945;SDS011;29599;51.196;4.428;2022-10-16T14:03:13;3.95;;;0.88;;
43945;SDS011;29599;51.196;4.428;2022-10-16T14:05:45;8.30;;;2.20;;
43945;SDS011;29599;51.196;4.428;2022-10-16T14:08:23;7.97;;;1.52;;
43945;SDS011;29599;51.196;4.428;2022-10-16T14:10:53;6.28;;;1.08;;
43945;SDS011;29599;51.196;4.428;2022-10-16T14:15:53;10.63;;;1.60;;
43945;SDS011;29599;51.196;4.428;2022-10-16T14:18:21;6.82;;;1.30;;
43945;SDS011;29599;51.196;4.428;2022-10-16T14:20:49;6.00;;;1.30;;
43945;SDS011;29599;51.196;4.428;2022-10-16T14:23:19;4.78;;;1.33;;
43945;SDS011;29599;51.196;4.428;2022-10-16T14:25:45;5.22;;;1.13;;
43945;SDS011;29599;51.196;4.428;2022-10-16T14:30:58;7.78;;;1.25;;
43945;SDS011;29599;51.196;4.428;2022-10-16T14:36:04;7.18;;;1.42;;
43945;SDS011;29599;51.196;4.428;2022-10-16T14:38:39;4.03;;;1.05;;
43945;SDS011;29599;51.196;4.428;2022-10-16T14:41:07;3.83;;;1.20;;
43945;SDS011;29599;51.196;4.428;2022-10-16T14:43:37;7.95;;;1.45;;
43945;SDS011;29599;51.196;4.428;2022-10-16T14:46:15;6.88;;;1.48;;
43945;SDS011;29599;51.196;4.428;2022-10-16T14:48:44;4.55;;;1.35;;
43945;SDS011;29599;51.196;4.428;2022-10-16T14:51:18;3.00;;;1.02;;
43945;SDS011;29599;51.196;4.428;2022-10-16T14:53:45;8.18;;;1.92;;
43945;SDS011;29599;51.196;4.428;2022-10-16T14:56:21;5.70;;;1.15;;
43945;SDS011;29599;51.196;4.428;2022-10-16T14:58:49;2.78;;;0.80;;
43945;SDS011;29599;51.196;4.428;2022-10-16T15:01:16;3.00;;;1.10;;
43945;SDS011;29599;51.196;4.428;2022-10-16T15:03:43;2.90;;;1.20;;
43945;SDS011;29599;51.196;4.428;2022-10-16T15:06:12;3.90;;;1.08;;
43945;SDS011;29599;51.196;4.428;2022-10-16T15:08:39;2.45;;;1.17;;
43945;SDS011;29599;51.196;4.428;2022-10-16T15:11:05;2.53;;;0.93;;
43945;SDS011;29599;51.196;4.428;2022-10-16T15:13:42;2.25;;;0.90;;
43945;SDS011;29599;51.196;4.428;2022-10-16T15:16:10;8.05;;;1.50;;
43945;SDS011;29599;51.196;4.428;2022-10-16T15:18:37;6.05;;;1.40;;
43945;SDS011;29599;51.196;4.428;2022-10-16T15:21:03;4.45;;;1.33;;
43945;SDS011;29599;51.196;4.428;2022-10-16T15:23:28;3.72;;;1.50;;
43945;SDS011;29599;51.196;4.428;2022-10-16T15:25:54;2.70;;;1.00;;
43945;SDS011;29599;51.196;4.428;2022-10-16T15:28:21;2.55;;;1.02;;
43945;SDS011;29599;51.196;4.428;2022-10-16T15:30:49;3.70;;;1.20;;
43945;SDS011;29599;51.196;4.428;2022-10-16T15:33:16;6.38;;;1.13;;
43945;SDS011;29599;51.196;4.428;2022-10-16T15:35:47;2.85;;;1.25;;
43945;SDS011;29599;51.196;4.428;2022-10-16T15:38:14;23.50;;;7.30;;
43945;SDS011;29599;51.196;4.428;2022-10-16T15:40:40;11.13;;;3.83;;
43945;SDS011;29599;51.196;4.428;2022-10-16T15:43:06;13.07;;;5.40;;
43945;SDS011;29599;51.196;4.428;2022-10-16T15:45:32;10.57;;;3.53;;
43945;SDS011;29599;51.196;4.428;2022-10-16T15:47:58;9.00;;;3.17;;
43945;SDS011;29599;51.196;4.428;2022-10-16T15:50:24;11.52;;;3.45;;
43945;SDS011;29599;51.196;4.428;2022-10-16T15:52:50;6.68;;;1.98;;
43945;SDS011;29599;51.196;4.428;2022-10-16T15:55:16;9.80;;;1.75;;
43945;SDS011;29599;51.196;4.428;2022-10-16T15:57:43;8.23;;;3.78;;
43945;SDS011;29599;51.196;4.428;2022-10-16T16:00:13;10.77;;;3.40;;
43945;SDS011;29599;51.196;4.428;2022-10-16T16:02:42;10.02;;;2.88;;
43945;SDS011;29599;51.196;4.428;2022-10-16T16:05:10;10.25;;;3.63;;
43945;SDS011;29599;51.196;4.428;2022-10-16T16:07:36;6.78;;;2.60;;
43945;SDS011;29599;51.196;4.428;2022-10-16T16:10:04;6.95;;;2.80;;
43945;SDS011;29599;51.196;4.428;2022-10-16T16:12:31;7.07;;;2.30;;
43945;SDS011;29599;51.196;4.428;2022-10-16T16:14:57;6.15;;;2.55;;
43945;SDS011;29599;51.196;4.428;2022-10-16T16:17:23;5.70;;;2.33;;
43945;SDS011;29599;51.196;4.428;2022-10-16T16:19:49;10.43;;;2.42;;
43945;SDS011;29599;51.196;4.428;2022-10-16T16:22:15;6.65;;;2.55;;
43945;SDS011;29599;51.196;4.428;2022-10-16T16:24:40;7.47;;;3.10;;
43945;SDS011;29599;51.196;4.428;2022-10-16T16:27:06;9.77;;;4.57;;
43945;SDS011;29599;51.196;4.428;2022-10-16T16:29:32;11.88;;;4.93;;
43945;SDS011;29599;51.196;4.428;2022-10-16T16:31:58;11.05;;;4.40;;
43945;SDS011;29599;51.196;4.428;2022-10-16T16:34:25;10.27;;;4.32;;
43945;SDS011;29599;51.196;4.428;2022-10-16T16:36:52;7.47;;;4.03;;
43945;SDS011;29599;51.196;4.428;2022-10-16T16:39:18;13.15;;;5.28;;
43945;SDS011;29599;51.196;4.428;2022-10-16T16:41:44;9.73;;;4.07;;
43945;SDS011;29599;51.196;4.428;2022-10-16T16:44:12;7.05;;;3.80;;
43945;SDS011;29599;51.196;4.428;2022-10-16T16:46:39;9.27;;;3.40;;
43945;SDS011;29599;51.196;4.428;2022-10-16T16:49:08;6.13;;;3.25;;
43945;SDS011;29599;51.196;4.428;2022-10-16T16:51:35;6.10;;;2.67;;
43945;SDS011;29599;51.196;4.428;2022-10-16T16:54:01;10.93;;;3.55;;